sensor_id;sensor_type;location;lat;lon;timestamp;P1;durP1;ratioP1;P2;durP2;ratioP2
11711;SDS011;5912;51.034;6.984;2024-02-16T00:00:29;2.90;;;1.35;;
11711;SDS011;5912;51.034;6.984;2024-02-16T00:02:54;3.40;;;1.25;;
11711;SDS011;5912;51.034;6.984;2024-02-16T00:05:19;4.28;;;1.52;;
11711;SDS011;5912;51.034;6.984;2024-02-16T00:07:44;5.05;;;1.60;;
11711;SDS011;5912;51.034;6.984;2024-02-16T00:10:10;1.98;;;1.10;;
11711;SDS011;5912;51.034;6.984;2024-02-16T00:12:37;3.53;;;1.60;;
11711;SDS011;5912;51.034;6.984;2024-02-16T00:17:58;3.97;;;1.17;;
11711;SDS011;5912;51.034;6.984;2024-02-16T00:20:23;1.38;;;1.08;;
11711;SDS011;5912;51.034;6.984;2024-02-16T00:22:49;4.15;;;1.30;;
11711;SDS011;5912;51.034;6.984;2024-02-16T00:25:14;2.38;;;1.10;;
11711;SDS011;5912;51.034;6.984;2024-02-16T00:27:40;3.70;;;1.13;;
11711;SDS011;5912;51.034;6.984;2024-02-16T00:30:06;3.28;;;1.55;;
11711;SDS011;5912;51.034;6.984;2024-02-16T00:32:32;3.67;;;1.30;;
11711;SDS011;5912;51.034;6.984;2024-02-16T00:34:57;3.45;;;1.55;;
11711;SDS011;5912;51.034;6.984;2024-02-16T00:37:22;2.55;;;1.38;;
11711;SDS011;5912;51.034;6.984;2024-02-16T00:39:49;1.40;;;1.10;;
11711;SDS011;5912;51.034;6.984;2024-02-16T00:42:15;2.33;;;1.40;;
11711;SDS011;5912;51.034;6.984;2024-02-16T00:44:40;1.75;;;1.17;;
11711;SDS011;5912;51.034;6.984;2024-02-16T00:47:05;3.13;;;1.30;;
11711;SDS011;5912;51.034;6.984;2024-02-16T00:49:31;2.78;;;1.30;;
11711;SDS011;5912;51.034;6.984;2024-02-16T00:51:57;2.25;;;1.05;;
11711;SDS011;5912;51.034;6.984;2024-02-16T00:54:22;4.15;;;1.33;;
11711;SDS011;5912;51.034;6.984;2024-02-16T00:56:48;2.00;;;1.25;;
11711;SDS011;5912;51.034;6.984;2024-02-16T00:59:13;2.80;;;1.20;;
11711;SDS011;5912;51.034;6.984;2024-02-16T01:01:38;2.42;;;1.35;;
11711;SDS011;5912;51.034;6.984;2024-02-16T01:04:04;2.08;;;1.35;;
11711;SDS011;5912;51.034;6.984;2024-02-16T01:06:29;2.42;;;1.30;;
11711;SDS011;5912;51.034;6.984;2024-02-16T01:08:54;2.55;;;1.10;;
11711;SDS011;5912;51.034;6.984;2024-02-16T01:11:21;2.05;;;1.10;;
11711;SDS011;5912;51.034;6.984;2024-02-16T01:13:47;1.65;;;0.90;;
11711;SDS011;5912;51.034;6.984;2024-02-16T01:16:12;1.58;;;1.05;;
11711;SDS011;5912;51.034;6.984;2024-02-16T01:18:37;2.40;;;1.48;;
11711;SDS011;5912;51.034;6.984;2024-02-16T01:21:05;2.20;;;1.10;;
11711;SDS011;5912;51.034;6.984;2024-02-16T01:23:30;4.28;;;1.55;;
11711;SDS011;5912;51.034;6.984;2024-02-16T01:25:55;1.52;;;1.08;;
11711;SDS011;5912;51.034;6.984;2024-02-16T01:28:21;2.50;;;1.10;;
11711;SDS011;5912;51.034;6.984;2024-02-16T01:30:46;2.58;;;1.23;;
11711;SDS011;5912;51.034;6.984;2024-02-16T01:33:12;2.53;;;1.40;;
11711;SDS011;5912;51.034;6.984;2024-02-16T01:35:38;1.50;;;1.10;;
11711;SDS011;5912;51.034;6.984;2024-02-16T01:38:04;2.72;;;1.38;;
11711;SDS011;5912;51.034;6.984;2024-02-16T01:40:30;2.65;;;1.30;;
11711;SDS011;5912;51.034;6.984;2024-02-16T01:42:56;2.92;;;1.30;;
11711;SDS011;5912;51.034;6.984;2024-02-16T01:45:22;1.80;;;1.20;;
11711;SDS011;5912;51.034;6.984;2024-02-16T01:47:48;2.03;;;1.10;;
11711;SDS011;5912;51.034;6.984;2024-02-16T01:50:15;1.73;;;1.27;;
11711;SDS011;5912;51.034;6.984;2024-02-16T01:52:42;1.65;;;1.20;;
11711;SDS011;5912;51.034;6.984;2024-02-16T01:55:11;2.03;;;1.10;;
11711;SDS011;5912;51.034;6.984;2024-02-16T01:57:40;2.58;;;1.25;;
11711;SDS011;5912;51.034;6.984;2024-02-16T02:00:07;1.33;;;1.00;;
11711;SDS011;5912;51.034;6.984;2024-02-16T02:02:36;2.88;;;1.20;;
11711;SDS011;5912;51.034;6.984;2024-02-16T02:05:02;1.08;;;0.90;;
11711;SDS011;5912;51.034;6.984;2024-02-16T02:07:28;4.82;;;1.30;;
11711;SDS011;5912;51.034;6.984;2024-02-16T02:09:54;3.33;;;0.98;;
11711;SDS011;5912;51.034;6.984;2024-02-16T02:12:20;1.60;;;1.05;;
11711;SDS011;5912;51.034;6.984;2024-02-16T02:14:45;2.80;;;1.02;;
11711;SDS011;5912;51.034;6.984;2024-02-16T02:17:11;2.30;;;1.40;;
11711;SDS011;5912;51.034;6.984;2024-02-16T02:19:37;2.90;;;1.50;;
11711;SDS011;5912;51.034;6.984;2024-02-16T02:22:02;1.52;;;1.15;;
11711;SDS011;5912;51.034;6.984;2024-02-16T02:24:28;1.30;;;1.10;;
11711;SDS011;5912;51.034;6.984;2024-02-16T02:26:53;2.08;;;1.00;;
11711;SDS011;5912;51.034;6.984;2024-02-16T02:29:19;1.75;;;1.05;;
11711;SDS011;5912;51.034;6.984;2024-02-16T02:31:45;3.97;;;1.17;;
11711;SDS011;5912;51.034;6.984;2024-02-16T02:34:10;2.08;;;1.08;;
11711;SDS011;5912;51.034;6.984;2024-02-16T02:36:35;1.10;;;1.00;;
11711;SDS011;5912;51.034;6.984;2024-02-16T02:39:01;2.35;;;1.20;;
11711;SDS011;5912;51.034;6.984;2024-02-16T02:41:26;3.25;;;1.33;;
11711;SDS011;5912;51.034;6.984;2024-02-16T02:43:51;2.17;;;1.17;;
11711;SDS011;5912;51.034;6.984;2024-02-16T02:46:17;2.38;;;1.27;;
11711;SDS011;5912;51.034;6.984;2024-02-16T02:48:43;3.25;;;1.45;;
11711;SDS011;5912;51.034;6.984;2024-02-16T02:51:09;2.33;;;1.13;;
11711;SDS011;5912;51.034;6.984;2024-02-16T02:53:35;1.85;;;0.88;;
11711;SDS011;5912;51.034;6.984;2024-02-16T02:56:00;1.85;;;1.10;;
11711;SDS011;5912;51.034;6.984;2024-02-16T02:58:26;2.75;;;1.30;;
11711;SDS011;5912;51.034;6.984;2024-02-16T03:00:51;2.03;;;1.20;;
11711;SDS011;5912;51.034;6.984;2024-02-16T03:03:17;2.50;;;1.38;;
11711;SDS011;5912;51.034;6.984;2024-02-16T03:05:42;3.15;;;1.30;;
11711;SDS011;5912;51.034;6.984;2024-02-16T03:08:07;1.27;;;1.00;;
11711;SDS011;5912;51.034;6.984;2024-02-16T03:10:33;4.05;;;1.30;;
11711;SDS011;5912;51.034;6.984;2024-02-16T03:13:00;2.72;;;1.17;;
11711;SDS011;5912;51.034;6.984;2024-02-16T03:15:26;2.15;;;1.10;;
11711;SDS011;5912;51.034;6.984;2024-02-16T03:17:51;2.95;;;1.55;;
11711;SDS011;5912;51.034;6.984;2024-02-16T03:20:16;3.15;;;1.30;;
11711;SDS011;5912;51.034;6.984;2024-02-16T03:22:42;2.13;;;1.23;;
11711;SDS011;5912;51.034;6.984;2024-02-16T03:25:07;2.35;;;1.30;;
11711;SDS011;5912;51.034;6.984;2024-02-16T03:27:32;3.90;;;1.20;;
11711;SDS011;5912;51.034;6.984;2024-02-16T03:29:58;2.95;;;1.10;;
11711;SDS011;5912;51.034;6.984;2024-02-16T03:32:24;3.33;;;1.30;;
11711;SDS011;5912;51.034;6.984;2024-02-16T03:34:49;2.35;;;1.30;;
11711;SDS011;5912;51.034;6.984;2024-02-16T03:37:15;1.50;;;1.20;;
11711;SDS011;5912;51.034;6.984;2024-02-16T03:39:40;2.47;;;1.45;;
11711;SDS011;5912;51.034;6.984;2024-02-16T03:42:06;1.58;;;1.10;;
11711;SDS011;5912;51.034;6.984;2024-02-16T03:44:32;1.83;;;1.10;;
11711;SDS011;5912;51.034;6.984;2024-02-16T03:46:57;2.28;;;1.30;;
11711;SDS011;5912;51.034;6.984;2024-02-16T03:49:22;1.80;;;1.38;;
11711;SDS011;5912;51.034;6.984;2024-02-16T03:51:48;2.20;;;1.38;;
11711;SDS011;5912;51.034;6.984;2024-02-16T03:54:13;5.40;;;1.58;;
11711;SDS011;5912;51.034;6.984;2024-02-16T03:56:38;2.45;;;1.27;;
11711;SDS011;5912;51.034;6.984;2024-02-16T03:59:03;1.60;;;1.42;;
11711;SDS011;5912;51.034;6.984;2024-02-16T04:01:30;2.80;;;1.20;;
11711;SDS011;5912;51.034;6.984;2024-02-16T04:03:56;3.08;;;1.40;;
11711;SDS011;5912;51.034;6.984;2024-02-16T04:06:21;3.28;;;1.65;;
11711;SDS011;5912;51.034;6.984;2024-02-16T04:08:46;3.90;;;1.38;;
11711;SDS011;5912;51.034;6.984;2024-02-16T04:11:13;2.28;;;1.30;;
11711;SDS011;5912;51.034;6.984;2024-02-16T04:13:40;4.18;;;1.58;;
11711;SDS011;5912;51.034;6.984;2024-02-16T04:16:17;2.42;;;1.35;;
11711;SDS011;5912;51.034;6.984;2024-02-16T04:18:46;2.17;;;1.50;;
11711;SDS011;5912;51.034;6.984;2024-02-16T04:21:11;3.15;;;1.40;;
11711;SDS011;5912;51.034;6.984;2024-02-16T04:23:36;3.67;;;1.50;;
11711;SDS011;5912;51.034;6.984;2024-02-16T04:26:01;3.15;;;1.52;;
11711;SDS011;5912;51.034;6.984;2024-02-16T04:28:27;3.03;;;1.50;;
11711;SDS011;5912;51.034;6.984;2024-02-16T04:30:52;3.53;;;1.58;;
11711;SDS011;5912;51.034;6.984;2024-02-16T04:33:17;2.63;;;1.45;;
11711;SDS011;5912;51.034;6.984;2024-02-16T04:35:43;3.38;;;1.60;;
11711;SDS011;5912;51.034;6.984;2024-02-16T04:38:11;3.05;;;1.60;;
11711;SDS011;5912;51.034;6.984;2024-02-16T04:40:37;3.08;;;1.42;;
11711;SDS011;5912;51.034;6.984;2024-02-16T04:43:02;2.30;;;1.40;;
11711;SDS011;5912;51.034;6.984;2024-02-16T04:45:28;2.25;;;1.58;;
11711;SDS011;5912;51.034;6.984;2024-02-16T04:47:55;3.47;;;1.48;;
11711;SDS011;5912;51.034;6.984;2024-02-16T04:50:20;2.53;;;1.38;;
11711;SDS011;5912;51.034;6.984;2024-02-16T04:52:45;4.13;;;1.98;;
11711;SDS011;5912;51.034;6.984;2024-02-16T04:55:11;3.83;;;1.40;;
11711;SDS011;5912;51.034;6.984;2024-02-16T04:57:36;3.17;;;1.58;;
11711;SDS011;5912;51.034;6.984;2024-02-16T05:00:02;3.38;;;1.90;;
11711;SDS011;5912;51.034;6.984;2024-02-16T05:02:28;2.22;;;1.58;;
11711;SDS011;5912;51.034;6.984;2024-02-16T05:04:53;3.53;;;1.85;;
11711;SDS011;5912;51.034;6.984;2024-02-16T05:07:19;2.50;;;1.58;;
11711;SDS011;5912;51.034;6.984;2024-02-16T05:09:44;7.60;;;2.10;;
11711;SDS011;5912;51.034;6.984;2024-02-16T05:12:15;3.72;;;1.60;;
11711;SDS011;5912;51.034;6.984;2024-02-16T05:14:40;4.00;;;2.03;;
11711;SDS011;5912;51.034;6.984;2024-02-16T05:17:05;2.92;;;1.38;;
11711;SDS011;5912;51.034;6.984;2024-02-16T05:19:33;1.65;;;1.55;;
11711;SDS011;5912;51.034;6.984;2024-02-16T05:22:00;1.95;;;1.52;;
11711;SDS011;5912;51.034;6.984;2024-02-16T05:24:25;3.67;;;1.70;;
11711;SDS011;5912;51.034;6.984;2024-02-16T05:26:51;3.10;;;1.63;;
11711;SDS011;5912;51.034;6.984;2024-02-16T05:29:16;5.03;;;1.67;;
11711;SDS011;5912;51.034;6.984;2024-02-16T05:31:42;3.97;;;1.80;;
11711;SDS011;5912;51.034;6.984;2024-02-16T05:34:07;2.45;;;1.80;;
11711;SDS011;5912;51.034;6.984;2024-02-16T05:36:32;2.53;;;1.45;;
11711;SDS011;5912;51.034;6.984;2024-02-16T05:39:00;4.07;;;1.73;;
11711;SDS011;5912;51.034;6.984;2024-02-16T05:41:45;4.55;;;1.80;;
11711;SDS011;5912;51.034;6.984;2024-02-16T05:44:10;2.30;;;1.60;;
11711;SDS011;5912;51.034;6.984;2024-02-16T05:46:35;4.05;;;1.98;;
11711;SDS011;5912;51.034;6.984;2024-02-16T05:49:03;3.10;;;1.90;;
11711;SDS011;5912;51.034;6.984;2024-02-16T05:51:34;3.53;;;1.70;;
11711;SDS011;5912;51.034;6.984;2024-02-16T05:54:00;4.97;;;1.77;;
11711;SDS011;5912;51.034;6.984;2024-02-16T05:56:26;2.53;;;1.58;;
11711;SDS011;5912;51.034;6.984;2024-02-16T05:58:53;5.40;;;2.00;;
11711;SDS011;5912;51.034;6.984;2024-02-16T06:01:18;3.15;;;1.90;;
11711;SDS011;5912;51.034;6.984;2024-02-16T06:03:43;3.05;;;1.70;;
11711;SDS011;5912;51.034;6.984;2024-02-16T06:06:09;3.42;;;1.70;;
11711;SDS011;5912;51.034;6.984;2024-02-16T06:08:34;5.28;;;1.60;;
11711;SDS011;5912;51.034;6.984;2024-02-16T06:10:59;3.05;;;1.52;;
11711;SDS011;5912;51.034;6.984;2024-02-16T06:13:27;2.95;;;1.70;;
11711;SDS011;5912;51.034;6.984;2024-02-16T06:15:52;4.05;;;1.75;;
11711;SDS011;5912;51.034;6.984;2024-02-16T06:18:17;3.25;;;1.80;;
11711;SDS011;5912;51.034;6.984;2024-02-16T06:20:43;2.50;;;1.63;;
11711;SDS011;5912;51.034;6.984;2024-02-16T06:23:08;4.03;;;1.90;;
11711;SDS011;5912;51.034;6.984;2024-02-16T06:25:34;3.13;;;1.92;;
11711;SDS011;5912;51.034;6.984;2024-02-16T06:27:59;3.97;;;1.60;;
11711;SDS011;5912;51.034;6.984;2024-02-16T06:30:24;2.35;;;1.60;;
11711;SDS011;5912;51.034;6.984;2024-02-16T06:32:49;3.58;;;1.48;;
11711;SDS011;5912;51.034;6.984;2024-02-16T06:35:15;3.22;;;1.63;;
11711;SDS011;5912;51.034;6.984;2024-02-16T06:37:40;2.88;;;1.65;;
11711;SDS011;5912;51.034;6.984;2024-02-16T06:40:06;2.33;;;1.88;;
11711;SDS011;5912;51.034;6.984;2024-02-16T06:42:35;3.03;;;1.73;;
11711;SDS011;5912;51.034;6.984;2024-02-16T06:45:00;5.57;;;1.90;;
11711;SDS011;5912;51.034;6.984;2024-02-16T06:47:26;2.83;;;1.63;;
11711;SDS011;5912;51.034;6.984;2024-02-16T06:49:51;2.03;;;1.42;;
11711;SDS011;5912;51.034;6.984;2024-02-16T06:52:16;9.60;;;1.80;;
11711;SDS011;5912;51.034;6.984;2024-02-16T06:54:41;5.50;;;1.65;;
11711;SDS011;5912;51.034;6.984;2024-02-16T06:57:07;2.67;;;1.70;;
11711;SDS011;5912;51.034;6.984;2024-02-16T06:59:32;4.10;;;1.83;;
11711;SDS011;5912;51.034;6.984;2024-02-16T07:01:57;3.03;;;1.88;;
11711;SDS011;5912;51.034;6.984;2024-02-16T07:04:22;4.10;;;2.08;;
11711;SDS011;5912;51.034;6.984;2024-02-16T07:06:48;3.88;;;1.60;;
11711;SDS011;5912;51.034;6.984;2024-02-16T07:09:13;2.42;;;1.73;;
11711;SDS011;5912;51.034;6.984;2024-02-16T07:11:40;2.70;;;1.83;;
11711;SDS011;5912;51.034;6.984;2024-02-16T07:14:05;2.55;;;1.60;;
11711;SDS011;5912;51.034;6.984;2024-02-16T07:16:33;3.75;;;1.60;;
11711;SDS011;5912;51.034;6.984;2024-02-16T07:18:58;3.72;;;1.90;;
11711;SDS011;5912;51.034;6.984;2024-02-16T07:21:24;3.40;;;1.77;;
11711;SDS011;5912;51.034;6.984;2024-02-16T07:23:51;2.70;;;1.60;;
11711;SDS011;5912;51.034;6.984;2024-02-16T07:26:17;3.50;;;2.40;;
11711;SDS011;5912;51.034;6.984;2024-02-16T07:28:42;3.40;;;2.17;;
11711;SDS011;5912;51.034;6.984;2024-02-16T07:31:07;3.60;;;1.88;;
11711;SDS011;5912;51.034;6.984;2024-02-16T07:33:33;4.60;;;1.65;;
11711;SDS011;5912;51.034;6.984;2024-02-16T07:35:58;2.10;;;1.70;;
11711;SDS011;5912;51.034;6.984;2024-02-16T07:38:23;2.42;;;1.75;;
11711;SDS011;5912;51.034;6.984;2024-02-16T07:40:49;4.40;;;1.70;;
11711;SDS011;5912;51.034;6.984;2024-02-16T07:43:15;6.00;;;2.38;;
11711;SDS011;5912;51.034;6.984;2024-02-16T07:45:41;4.90;;;2.10;;
11711;SDS011;5912;51.034;6.984;2024-02-16T07:48:06;4.35;;;2.22;;
11711;SDS011;5912;51.034;6.984;2024-02-16T07:50:32;3.25;;;1.98;;
11711;SDS011;5912;51.034;6.984;2024-02-16T07:52:58;4.13;;;1.77;;
11711;SDS011;5912;51.034;6.984;2024-02-16T07:55:23;4.85;;;1.65;;
11711;SDS011;5912;51.034;6.984;2024-02-16T07:57:49;2.53;;;1.88;;
11711;SDS011;5912;51.034;6.984;2024-02-16T08:00:15;4.22;;;1.85;;
11711;SDS011;5912;51.034;6.984;2024-02-16T08:02:43;3.70;;;1.88;;
11711;SDS011;5912;51.034;6.984;2024-02-16T08:05:10;3.40;;;1.73;;
11711;SDS011;5912;51.034;6.984;2024-02-16T08:07:37;2.55;;;1.67;;
11711;SDS011;5912;51.034;6.984;2024-02-16T08:10:03;4.93;;;2.00;;
11711;SDS011;5912;51.034;6.984;2024-02-16T08:12:29;3.30;;;1.67;;
11711;SDS011;5912;51.034;6.984;2024-02-16T08:14:56;3.25;;;1.95;;
11711;SDS011;5912;51.034;6.984;2024-02-16T08:17:23;2.53;;;1.67;;
11711;SDS011;5912;51.034;6.984;2024-02-16T08:19:52;2.80;;;1.85;;
11711;SDS011;5912;51.034;6.984;2024-02-16T08:22:21;4.97;;;1.80;;
11711;SDS011;5912;51.034;6.984;2024-02-16T08:24:47;2.33;;;1.75;;
11711;SDS011;5912;51.034;6.984;2024-02-16T08:27:14;4.15;;;1.70;;
11711;SDS011;5912;51.034;6.984;2024-02-16T08:29:40;2.70;;;1.83;;
11711;SDS011;5912;51.034;6.984;2024-02-16T08:32:05;3.72;;;2.22;;
11711;SDS011;5912;51.034;6.984;2024-02-16T08:34:31;3.08;;;2.08;;
11711;SDS011;5912;51.034;6.984;2024-02-16T08:36:56;3.75;;;2.25;;
11711;SDS011;5912;51.034;6.984;2024-02-16T08:39:22;3.22;;;2.38;;
11711;SDS011;5912;51.034;6.984;2024-02-16T08:41:50;2.42;;;1.92;;
11711;SDS011;5912;51.034;6.984;2024-02-16T08:44:15;2.50;;;1.48;;
11711;SDS011;5912;51.034;6.984;2024-02-16T08:46:41;2.35;;;1.80;;
11711;SDS011;5912;51.034;6.984;2024-02-16T08:49:06;2.53;;;1.55;;
11711;SDS011;5912;51.034;6.984;2024-02-16T08:51:32;3.42;;;2.00;;
11711;SDS011;5912;51.034;6.984;2024-02-16T08:53:58;3.03;;;1.95;;
11711;SDS011;5912;51.034;6.984;2024-02-16T08:56:23;3.13;;;1.80;;
11711;SDS011;5912;51.034;6.984;2024-02-16T08:58:49;5.15;;;1.83;;
11711;SDS011;5912;51.034;6.984;2024-02-16T09:01:14;4.28;;;1.88;;
11711;SDS011;5912;51.034;6.984;2024-02-16T09:03:41;4.07;;;2.30;;
11711;SDS011;5912;51.034;6.984;2024-02-16T09:06:07;4.35;;;1.80;;
11711;SDS011;5912;51.034;6.984;2024-02-16T09:08:32;2.80;;;1.92;;
11711;SDS011;5912;51.034;6.984;2024-02-16T09:11:01;2.97;;;1.77;;
11711;SDS011;5912;51.034;6.984;2024-02-16T09:13:33;3.33;;;1.70;;
11711;SDS011;5912;51.034;6.984;2024-02-16T09:16:02;4.70;;;2.28;;
11711;SDS011;5912;51.034;6.984;2024-02-16T09:18:28;4.28;;;1.90;;
11711;SDS011;5912;51.034;6.984;2024-02-16T09:20:54;4.53;;;2.03;;
11711;SDS011;5912;51.034;6.984;2024-02-16T09:23:19;4.88;;;2.00;;
11711;SDS011;5912;51.034;6.984;2024-02-16T09:25:44;5.35;;;2.05;;
11711;SDS011;5912;51.034;6.984;2024-02-16T09:28:11;3.10;;;1.63;;
11711;SDS011;5912;51.034;6.984;2024-02-16T09:30:37;4.95;;;2.05;;
11711;SDS011;5912;51.034;6.984;2024-02-16T09:33:02;4.15;;;2.13;;
11711;SDS011;5912;51.034;6.984;2024-02-16T09:35:28;3.72;;;2.10;;
11711;SDS011;5912;51.034;6.984;2024-02-16T09:37:53;3.00;;;1.75;;
11711;SDS011;5912;51.034;6.984;2024-02-16T09:40:18;3.05;;;1.92;;
11711;SDS011;5912;51.034;6.984;2024-02-16T09:42:47;2.75;;;1.92;;
11711;SDS011;5912;51.034;6.984;2024-02-16T09:45:14;3.55;;;1.88;;
11711;SDS011;5912;51.034;6.984;2024-02-16T09:47:41;4.40;;;1.95;;
11711;SDS011;5912;51.034;6.984;2024-02-16T09:50:09;7.68;;;1.75;;
11711;SDS011;5912;51.034;6.984;2024-02-16T09:52:35;3.97;;;1.77;;
11711;SDS011;5912;51.034;6.984;2024-02-16T09:55:01;3.63;;;1.73;;
11711;SDS011;5912;51.034;6.984;2024-02-16T09:57:26;3.30;;;1.95;;
11711;SDS011;5912;51.034;6.984;2024-02-16T09:59:51;6.20;;;2.00;;
11711;SDS011;5912;51.034;6.984;2024-02-16T10:02:17;4.18;;;2.03;;
11711;SDS011;5912;51.034;6.984;2024-02-16T10:04:42;2.80;;;1.77;;
11711;SDS011;5912;51.034;6.984;2024-02-16T10:07:08;5.40;;;2.53;;
11711;SDS011;5912;51.034;6.984;2024-02-16T10:09:33;5.40;;;2.05;;
11711;SDS011;5912;51.034;6.984;2024-02-16T10:11:58;4.00;;;2.47;;
11711;SDS011;5912;51.034;6.984;2024-02-16T10:14:24;1.90;;;1.70;;
11711;SDS011;5912;51.034;6.984;2024-02-16T10:17:02;3.45;;;1.70;;
11711;SDS011;5912;51.034;6.984;2024-02-16T10:19:28;4.03;;;2.22;;
11711;SDS011;5912;51.034;6.984;2024-02-16T10:22:08;6.07;;;2.15;;
11711;SDS011;5912;51.034;6.984;2024-02-16T10:24:37;3.65;;;2.00;;
11711;SDS011;5912;51.034;6.984;2024-02-16T10:27:16;4.32;;;1.98;;
11711;SDS011;5912;51.034;6.984;2024-02-16T10:29:43;3.78;;;2.03;;
11711;SDS011;5912;51.034;6.984;2024-02-16T10:32:10;3.22;;;1.83;;
11711;SDS011;5912;51.034;6.984;2024-02-16T10:34:37;3.08;;;1.90;;
11711;SDS011;5912;51.034;6.984;2024-02-16T10:37:05;3.22;;;1.90;;
11711;SDS011;5912;51.034;6.984;2024-02-16T10:39:31;3.13;;;1.65;;
11711;SDS011;5912;51.034;6.984;2024-02-16T10:41:57;3.97;;;1.92;;
11711;SDS011;5912;51.034;6.984;2024-02-16T10:44:25;5.32;;;2.00;;
11711;SDS011;5912;51.034;6.984;2024-02-16T10:46:53;4.10;;;1.90;;
11711;SDS011;5912;51.034;6.984;2024-02-16T10:49:18;3.03;;;1.83;;
11711;SDS011;5912;51.034;6.984;2024-02-16T10:51:45;2.42;;;1.80;;
11711;SDS011;5912;51.034;6.984;2024-02-16T10:54:13;3.22;;;2.10;;
11711;SDS011;5912;51.034;6.984;2024-02-16T10:56:42;3.95;;;2.17;;
11711;SDS011;5912;51.034;6.984;2024-02-16T10:59:08;3.70;;;2.13;;
11711;SDS011;5912;51.034;6.984;2024-02-16T11:04:04;4.40;;;2.22;;
11711;SDS011;5912;51.034;6.984;2024-02-16T11:06:43;4.82;;;2.17;;
11711;SDS011;5912;51.034;6.984;2024-02-16T11:09:22;4.93;;;2.38;;
11711;SDS011;5912;51.034;6.984;2024-02-16T11:11:52;4.53;;;2.00;;
11711;SDS011;5912;51.034;6.984;2024-02-16T11:14:18;4.05;;;2.65;;
11711;SDS011;5912;51.034;6.984;2024-02-16T11:16:44;4.88;;;2.40;;
11711;SDS011;5912;51.034;6.984;2024-02-16T11:19:10;6.50;;;2.72;;
11711;SDS011;5912;51.034;6.984;2024-02-16T11:21:36;3.65;;;2.08;;
11711;SDS011;5912;51.034;6.984;2024-02-16T11:24:07;4.15;;;2.38;;
11711;SDS011;5912;51.034;6.984;2024-02-16T11:26:45;3.72;;;2.42;;
11711;SDS011;5912;51.034;6.984;2024-02-16T11:29:10;5.72;;;2.28;;
11711;SDS011;5912;51.034;6.984;2024-02-16T11:31:36;3.40;;;1.85;;
11711;SDS011;5912;51.034;6.984;2024-02-16T11:34:01;6.55;;;2.60;;
11711;SDS011;5912;51.034;6.984;2024-02-16T11:36:26;4.10;;;2.08;;
11711;SDS011;5912;51.034;6.984;2024-02-16T11:38:52;5.57;;;2.47;;
11711;SDS011;5912;51.034;6.984;2024-02-16T11:41:17;3.90;;;2.70;;
11711;SDS011;5912;51.034;6.984;2024-02-16T11:43:43;5.43;;;2.45;;
11711;SDS011;5912;51.034;6.984;2024-02-16T11:46:12;4.05;;;2.13;;
11711;SDS011;5912;51.034;6.984;2024-02-16T11:48:38;4.20;;;2.50;;
11711;SDS011;5912;51.034;6.984;2024-02-16T11:51:04;3.33;;;2.10;;
11711;SDS011;5912;51.034;6.984;2024-02-16T11:53:30;3.65;;;2.00;;
11711;SDS011;5912;51.034;6.984;2024-02-16T11:55:56;5.85;;;2.97;;
11711;SDS011;5912;51.034;6.984;2024-02-16T11:58:21;3.40;;;2.35;;
11711;SDS011;5912;51.034;6.984;2024-02-16T12:00:48;3.35;;;2.10;;
11711;SDS011;5912;51.034;6.984;2024-02-16T12:03:22;4.57;;;2.20;;
11711;SDS011;5912;51.034;6.984;2024-02-16T12:05:53;4.00;;;2.70;;
11711;SDS011;5912;51.034;6.984;2024-02-16T12:08:19;3.90;;;2.83;;
11711;SDS011;5912;51.034;6.984;2024-02-16T12:10:47;6.43;;;2.67;;
11711;SDS011;5912;51.034;6.984;2024-02-16T12:13:15;5.80;;;2.67;;
11711;SDS011;5912;51.034;6.984;2024-02-16T12:15:43;5.88;;;2.38;;
11711;SDS011;5912;51.034;6.984;2024-02-16T12:18:09;5.15;;;2.50;;
11711;SDS011;5912;51.034;6.984;2024-02-16T12:20:34;3.13;;;2.33;;
11711;SDS011;5912;51.034;6.984;2024-02-16T12:23:10;5.47;;;2.47;;
11711;SDS011;5912;51.034;6.984;2024-02-16T12:25:35;4.88;;;2.70;;
11711;SDS011;5912;51.034;6.984;2024-02-16T12:31:07;3.33;;;2.50;;
11711;SDS011;5912;51.034;6.984;2024-02-16T12:33:32;8.27;;;2.67;;
11711;SDS011;5912;51.034;6.984;2024-02-16T12:35:58;3.58;;;2.40;;
11711;SDS011;5912;51.034;6.984;2024-02-16T12:38:23;6.00;;;2.83;;
11711;SDS011;5912;51.034;6.984;2024-02-16T12:40:49;4.28;;;2.85;;
11711;SDS011;5912;51.034;6.984;2024-02-16T12:43:15;7.75;;;3.60;;
11711;SDS011;5912;51.034;6.984;2024-02-16T12:45:40;4.75;;;2.85;;
11711;SDS011;5912;51.034;6.984;2024-02-16T12:48:06;4.50;;;3.25;;
11711;SDS011;5912;51.034;6.984;2024-02-16T12:50:32;7.05;;;3.00;;
11711;SDS011;5912;51.034;6.984;2024-02-16T12:52:58;6.32;;;3.33;;
11711;SDS011;5912;51.034;6.984;2024-02-16T12:55:24;8.40;;;3.20;;
11711;SDS011;5912;51.034;6.984;2024-02-16T12:57:49;4.55;;;3.40;;
11711;SDS011;5912;51.034;6.984;2024-02-16T13:00:16;8.73;;;3.30;;
11711;SDS011;5912;51.034;6.984;2024-02-16T13:02:42;4.55;;;3.22;;
11711;SDS011;5912;51.034;6.984;2024-02-16T13:05:07;4.47;;;2.80;;
11711;SDS011;5912;51.034;6.984;2024-02-16T13:07:33;6.82;;;3.30;;
11711;SDS011;5912;51.034;6.984;2024-02-16T13:09:58;5.43;;;3.47;;
11711;SDS011;5912;51.034;6.984;2024-02-16T13:12:24;6.22;;;3.50;;
11711;SDS011;5912;51.034;6.984;2024-02-16T13:14:49;6.15;;;3.53;;
11711;SDS011;5912;51.034;6.984;2024-02-16T13:17:14;6.85;;;3.42;;
11711;SDS011;5912;51.034;6.984;2024-02-16T13:19:40;6.47;;;4.00;;
11711;SDS011;5912;51.034;6.984;2024-02-16T13:22:05;7.47;;;4.90;;
11711;SDS011;5912;51.034;6.984;2024-02-16T13:24:30;7.10;;;4.22;;
11711;SDS011;5912;51.034;6.984;2024-02-16T13:26:56;5.93;;;4.25;;
11711;SDS011;5912;51.034;6.984;2024-02-16T13:29:21;8.25;;;4.47;;
11711;SDS011;5912;51.034;6.984;2024-02-16T13:31:46;6.95;;;4.25;;
11711;SDS011;5912;51.034;6.984;2024-02-16T13:34:12;9.48;;;4.50;;
11711;SDS011;5912;51.034;6.984;2024-02-16T13:36:39;11.07;;;4.20;;
11711;SDS011;5912;51.034;6.984;2024-02-16T13:39:05;11.00;;;4.88;;
11711;SDS011;5912;51.034;6.984;2024-02-16T13:41:30;5.10;;;3.95;;
11711;SDS011;5912;51.034;6.984;2024-02-16T13:43:56;7.18;;;3.88;;
11711;SDS011;5912;51.034;6.984;2024-02-16T13:46:21;6.72;;;4.60;;
11711;SDS011;5912;51.034;6.984;2024-02-16T13:48:46;8.02;;;4.15;;
11711;SDS011;5912;51.034;6.984;2024-02-16T13:51:12;10.43;;;4.72;;
11711;SDS011;5912;51.034;6.984;2024-02-16T13:53:38;8.90;;;4.03;;
11711;SDS011;5912;51.034;6.984;2024-02-16T13:56:04;5.95;;;3.75;;
11711;SDS011;5912;51.034;6.984;2024-02-16T13:58:31;5.47;;;3.58;;
11711;SDS011;5912;51.034;6.984;2024-02-16T14:00:57;7.43;;;4.80;;
11711;SDS011;5912;51.034;6.984;2024-02-16T14:03:24;7.97;;;4.32;;
11711;SDS011;5912;51.034;6.984;2024-02-16T14:05:50;9.00;;;4.43;;
11711;SDS011;5912;51.034;6.984;2024-02-16T14:08:16;8.27;;;4.75;;
11711;SDS011;5912;51.034;6.984;2024-02-16T14:10:42;6.50;;;4.10;;
11711;SDS011;5912;51.034;6.984;2024-02-16T14:13:07;7.28;;;4.55;;
11711;SDS011;5912;51.034;6.984;2024-02-16T14:15:34;8.02;;;4.65;;
11711;SDS011;5912;51.034;6.984;2024-02-16T14:17:59;6.47;;;3.92;;
11711;SDS011;5912;51.034;6.984;2024-02-16T14:20:25;8.65;;;4.68;;
11711;SDS011;5912;51.034;6.984;2024-02-16T14:22:50;9.30;;;4.25;;
11711;SDS011;5912;51.034;6.984;2024-02-16T14:25:15;7.25;;;3.83;;
11711;SDS011;5912;51.034;6.984;2024-02-16T14:27:41;7.82;;;4.32;;
11711;SDS011;5912;51.034;6.984;2024-02-16T14:30:10;6.40;;;3.55;;
11711;SDS011;5912;51.034;6.984;2024-02-16T14:32:38;8.00;;;4.07;;
11711;SDS011;5912;51.034;6.984;2024-02-16T14:35:04;7.60;;;4.03;;
11711;SDS011;5912;51.034;6.984;2024-02-16T14:37:32;4.18;;;3.60;;
11711;SDS011;5912;51.034;6.984;2024-02-16T14:39:58;4.18;;;3.42;;
11711;SDS011;5912;51.034;6.984;2024-02-16T14:42:24;5.30;;;4.07;;
11711;SDS011;5912;51.034;6.984;2024-02-16T14:44:49;7.97;;;4.00;;
11711;SDS011;5912;51.034;6.984;2024-02-16T14:47:15;5.60;;;3.80;;
11711;SDS011;5912;51.034;6.984;2024-02-16T14:49:41;5.75;;;3.97;;
11711;SDS011;5912;51.034;6.984;2024-02-16T14:52:06;9.60;;;4.07;;
11711;SDS011;5912;51.034;6.984;2024-02-16T14:54:32;5.80;;;4.10;;
11711;SDS011;5912;51.034;6.984;2024-02-16T14:56:57;6.55;;;4.03;;
11711;SDS011;5912;51.034;6.984;2024-02-16T14:59:22;9.02;;;5.00;;
11711;SDS011;5912;51.034;6.984;2024-02-16T15:01:49;7.45;;;4.13;;